Date,TemperatureHighF,TemperatureAvgF,TemperatureLowF,DewpointHighF,DewpointAvgF,DewpointLowF,HumidityHigh,HumidityAvg,HumidityLow,PressureMaxIn,PressureMinIn,WindSpeedMaxMPH,WindSpeedAvgMPH,GustSpeedMaxMPH,PrecipitationSumIn
2013-1-1,31.3,26.2,15.4,30.5,22.0,9.2,99,85,68,30.17,30.02,9,2,13,0.00
2013-1-2,23.5,16.1,9.5,14.8,10.5,6.4,89,79,66,30.29,30.14,5,0,9,0.01
2013-1-3,30.3,20.4,7.9,20.4,13.1,4.3,87,74,51,30.30,30.21,14,3,20,0.00
2013-1-4,30.7,27.0,23.2,21.6,18.4,15.7,78,70,59,30.33,30.25,20,7,24,0.00
2013-1-5,36.6,28.3,17.2,26.3,21.1,13.5,90,75,60,30.41,30.16,9,1,14,0.18
2013-1-6,35.8,32.3,25.6,31.7,26.6,21.3,91,80,73,30.31,30.00,14,3,23,0.09
2013-1-7,33.7,28.6,25.4,24.9,22.9,21.2,89,80,64,30.51,30.28,9,1,12,0.04
2013-1-8,45.1,32.0,21.3,30.9,25.0,17.8,92,76,57,30.37,30.25,6,0,11,0.05
2013-1-9,46.8,39.8,34.6,38.6,32.1,24.4,90,74,61,30.52,30.21,13,2,17,0.10
2013-1-10,39.2,34.1,27.3,29.6,28.2,24.8,92,79,68,30.58,30.19,10,2,14,0.00
2013-1-11,58.7,49.4,39.6,53.1,44.4,29.5,98,83,66,30.19,29.88,16,3,22,0.45
2013-1-12,62.4,57.2,50.1,59.7,54.8,46.4,100,93,77,30.03,29.82,10,2,15,0.02
2013-1-13,63.2,57.3,38.0,60.9,54.2,36.1,100,90,76,30.03,29.74,26,5,33,0.40
2013-1-14,38.0,28.6,24.4,36.9,23.3,20.1,96,81,73,30.43,30.03,12,3,17,0.00
2013-1-15,32.4,27.1,21.6,22.6,20.8,18.5,89,77,65,30.41,30.09,10,1,13,0.01
2013-1-16,34.3,31.0,29.5,28.0,24.8,21.9,91,78,68,30.09,29.94,13,3,18,0.00
2013-1-17,35.8,31.8,24.8,27.8,24.7,16.0,87,75,64,30.32,30.07,14,2,17,0.00
2013-1-18,33.4,25.4,14.9,21.8,14.7,8.6,81,64,52,30.54,30.24,19,3,19,0.00
2013-1-19,51.6,41.9,33.5,27.3,22.5,19.0,60,47,30,30.23,29.84,20,7,27,0.00
2013-1-20,43.1,30.9,22.2,31.2,16.3,9.9,65,55,38,30.21,29.82,21,6,32,0.00
2013-1-21,22.4,17.9,8.4,15.8,8.9,-3.0,83,68,53,30.22,30.03,21,5,23,0.00
2013-1-22,13.5,8.6,4.3,-2.0,-3.6,-6.0,64,56,45,30.38,30.21,17,4,20,0.00
2013-1-23,19.1,12.9,5.4,12.7,2.1,-2.0,86,62,40,30.38,30.11,13,2,16,0.00
2013-1-24,21.3,14.9,10.2,12.7,7.1,3.4,86,71,56,30.60,30.11,12,2,19,0.00
2013-1-25,20.3,16.9,14.1,18.1,10.2,2.9,91,75,58,30.53,30.06,7,1,14,0.00
2013-1-26,26.4,23.0,12.6,21.1,16.8,6.4,91,78,62,30.49,30.13,12,2,14,0.00
2013-1-27,33.1,22.2,10.4,26.7,14.5,6.2,86,73,57,30.54,30.26,11,1,13,0.04
2013-1-28,48.5,41.6,30.3,48.4,40.9,26.6,100,98,86,30.26,30.01,12,2,16,0.00
2013-1-29,66.9,57.1,48.3,54.6,51.6,48.2,100,83,60,30.05,29.64,23,4,23,0.00
2013-1-30,62.9,54.3,32.9,55.9,48.4,26.9,94,81,69,29.62,29.21,20,7,31,0.00
2013-1-31,33.2,24.2,17.5,27.0,17.5,9.5,91,76,56,29.94,29.41,26,8,37,0.00
2013-2-1,17.2,10.3,5.8,13.8,2.5,-1.0,88,70,60,30.42,29.94,14,5,19,0.00
2013-2-2,24.8,17.7,6.3,22.8,13.4,0.6,92,83,74,30.39,30.01,10,2,17,0.00
2013-2-3,24.2,20.1,15.9,21.4,15.1,8.5,89,81,66,30.13,29.92,13,2,18,0.00
2013-2-4,29.0,20.5,12.4,28.2,16.7,9.1,97,85,64,30.13,29.87,6,0,11,0.00
2013-2-5,30.3,27.3,25.1,27.8,23.8,19.9,96,87,71,30.00,29.87,10,1,14,0.05
2013-2-6,35.5,28.4,18.6,27.0,20.4,13.8,87,72,51,30.33,30.00,9,2,15,0.04
2013-2-7,47.4,35.4,23.0,30.9,25.1,16.5,81,67,48,30.29,29.85,10,2,13,0.02
2013-2-8,40.9,32.9,24.5,38.6,27.4,16.9,95,81,71,30.31,29.76,20,5,25,0.18
2013-2-9,35.2,26.2,17.8,20.1,16.4,13.5,87,67,49,30.46,30.31,9,1,14,0.00
2013-2-10,46.0,36.2,25.6,39.3,23.3,15.4,82,60,44,30.31,29.84,13,2,18,0.02
2013-2-11,51.7,44.7,36.5,46.6,35.3,24.0,95,71,45,29.97,29.74,25,8,32,0.00
2013-2-12,43.8,35.1,27.9,26.2,23.9,21.8,78,64,47,30.12,29.93,16,4,24,0.00
2013-2-13,31.0,28.5,24.2,28.3,24.8,21.5,94,86,77,29.92,29.74,8,1,10,0.00
2013-2-14,43.1,33.7,24.7,36.4,30.4,23.2,97,88,71,29.96,29.83,15,2,19,0.00
2013-2-15,34.4,30.4,25.3,29.2,26.2,21.7,91,84,75,30.13,29.97,10,1,15,0.03
2013-2-16,27.0,22.3,15.1,22.4,14.9,5.2,89,74,51,30.12,30.00,13,3,19,0.02
2013-2-17,23.3,16.4,11.6,10.3,7.0,1.1,81,67,52,30.29,30.08,13,3,17,0.00
2013-2-18,49.9,31.5,13.8,31.1,18.0,6.7,74,58,43,30.30,29.78,24,3,33,0.00
2013-2-19,49.1,30.8,19.1,38.1,25.2,11.4,96,80,45,30.07,29.64,27,8,32,0.16
2013-2-20,20.0,18.3,14.8,13.9,10.1,6.7,81,70,59,30.32,30.07,14,5,22,0.00
2013-2-21,27.6,21.8,18.6,16.7,14.1,10.3,84,72,62,30.39,30.24,10,2,15,0.00
2013-2-22,40.3,32.0,23.5,38.8,28.3,15.6,99,86,71,30.24,29.94,14,3,17,0.04
2013-2-23,40.1,34.7,28.7,31.5,27.0,21.7,89,74,52,29.99,29.88,13,2,17,0.00
2013-2-24,31.8,28.4,25.4,23.9,20.3,18.4,83,72,58,30.18,29.92,11,2,16,0.00
2013-2-25,46.4,32.7,19.2,26.6,21.5,15.9,92,65,41,30.23,30.00,8,1,13,0.00
2013-2-26,41.5,35.4,31.8,41.2,30.5,20.9,99,84,61,30.00,29.49,15,5,21,0.52
2013-2-27,41.6,36.6,31.9,41.3,34.2,28.6,99,91,83,29.70,29.48,16,6,23,0.22
2013-2-28,34.4,32.1,30.1,32.3,29.8,26.7,95,92,83,29.91,29.65,12,4,17,0.06
2013-3-1,31.6,29.4,24.7,28.7,23.5,18.2,89,79,68,30.05,29.90,11,1,14,0.00
2013-3-2,27.9,25.4,23.9,21.7,20.2,17.7,88,80,67,30.06,30.00,11,3,16,0.00
2013-3-3,27.0,22.7,17.3,20.0,16.4,13.2,88,77,62,30.10,30.02,11,2,14,0.00
2013-3-4,39.3,26.3,14.4,19.7,14.9,9.9,89,65,31,30.19,30.07,9,1,12,0.00
2013-3-5,39.1,33.8,28.8,31.1,23.4,16.4,96,66,52,30.09,29.54,13,3,18,0.00
2013-3-6,38.3,33.9,31.2,35.4,30.4,26.6,98,88,72,30.20,29.53,10,2,13,0.06
2013-3-7,39.5,33.3,30.1,28.2,26.3,25.2,84,76,59,30.32,30.18,11,3,14,0.01
2013-3-10,68.9,63.5,58.6,34.9,31.9,29.6,41,31,24,29.94,29.84,10,1,14,0.00
2013-3-11,58.7,51.3,40.5,50.0,40.2,33.1,95,68,40,29.85,29.56,19,4,26,0.00
2013-3-12,40.3,35.2,31.2,33.2,28.7,24.3,92,77,59,30.02,29.79,15,4,21,0.00
2013-3-13,31.8,28.3,24.8,30.7,22.3,15.4,96,79,59,30.27,29.96,17,5,25,0.00
2013-3-14,39.6,29.1,20.5,20.1,16.5,13.8,78,60,41,30.33,30.16,14,3,22,0.00
2013-3-15,48.3,37.6,27.6,39.3,28.2,18.2,93,69,57,30.17,29.85,12,2,15,0.00
2013-3-16,51.7,40.6,30.3,46.1,38.2,27.4,99,91,77,30.00,29.59,16,3,22,0.00
2013-3-17,37.6,32.5,29.8,27.4,24.8,21.9,89,74,57,30.19,30.01,12,2,16,0.00
2013-3-18,48.9,38.4,30.3,48.8,36.8,23.2,100,94,73,30.09,29.60,16,4,23,0.00
2013-3-19,40.2,33.7,27.6,34.8,22.9,14.5,87,66,42,30.04,29.76,22,8,31,0.00
2013-3-20,34.9,30.1,23.9,18.6,14.3,10.4,60,52,42,30.01,29.92,21,6,24,0.00
2013-3-21,27.3,23.4,17.0,19.7,13.1,7.7,80,65,51,30.01,29.92,12,4,20,0.00
2013-3-22,40.5,29.0,20.0,19.3,16.0,14.4,79,60,38,30.05,29.99,13,2,17,0.00
2013-3-23,30.1,25.0,23.0,21.4,17.0,15.3,77,71,62,30.08,30.01,0,0,4,0.00
2013-3-24,34.6,33.3,32.4,30.6,27.9,24.9,93,81,68,29.59,29.44,14,4,22,0.00
2013-3-25,33.5,31.9,30.9,31.3,30.3,29.1,99,94,86,29.85,29.39,12,2,20,0.00
2013-3-26,39.9,34.7,30.6,30.1,26.6,20.6,92,74,48,30.16,29.92,15,5,17,0.00
2013-3-27,42.3,35.8,31.5,29.1,25.1,19.6,88,67,43,30.25,30.15,16,5,21,0.00
2013-3-28,46.8,37.2,28.4,27.0,23.7,20.6,77,59,41,30.31,30.24,14,4,22,0.00
2013-3-29,51.0,40.0,27.9,27.4,25.2,22.0,80,57,36,30.31,30.19,13,2,17,0.00
2013-3-30,56.3,41.3,27.3,33.1,25.1,20.0,86,57,27,30.26,29.96,9,0,12,0.00
2013-3-31,52.6,45.2,39.9,45.3,36.3,23.5,96,73,47,29.95,29.72,11,1,16,0.00
2013-4-1,47.6,38.7,30.1,39.7,22.7,13.1,85,54,35,30.11,29.73,17,5,24,0.00
2013-4-2,39.8,28.3,20.2,17.9,13.5,10.7,69,54,38,30.25,30.10,14,2,16,0.00
2013-4-4,51.0,37.5,25.3,20.3,13.6,7.1,56,40,21,30.39,29.99,10,1,19,0.00
2013-4-5,56.7,43.9,31.9,33.2,22.2,18.0,60,43,27,30.16,29.94,15,1,17,0.00
2013-4-6,57.5,43.1,28.7,21.5,16.2,10.7,64,37,18,30.27,29.93,9,2,16,0.00
2013-4-7,70.1,60.6,51.9,45.8,35.7,17.2,57,40,25,29.97,29.83,18,5,26,0.00
2013-4-8,70.8,60.9,47.9,51.9,46.5,37.3,81,60,44,29.97,29.85,17,4,23,0.00
2013-4-9,79.0,65.9,51.1,55.7,52.3,48.8,94,65,38,30.05,29.87,22,3,25,0.00
2013-4-10,80.1,68.7,58.1,61.9,57.6,53.6,97,69,50,29.90,29.73,21,4,25,0.00
2013-4-11,68.9,59.8,56.3,61.3,57.2,54.1,99,91,73,29.84,29.52,9,1,17,0.00
2013-4-12,58.7,48.0,41.1,58.4,42.8,31.1,99,83,63,29.89,29.43,16,5,25,0.00
2013-4-13,46.2,41.5,39.6,33.5,32.0,30.5,75,69,59,29.98,29.89,14,5,23,0.00
2013-4-14,64.2,57.5,40.9,41.3,37.6,33.2,74,48,37,30.10,29.91,10,2,21,0.00
2013-4-15,67.9,60.0,51.0,52.4,46.0,36.2,70,60,48,30.00,29.88,15,2,16,0.00
2013-4-16,76.8,62.1,55.0,61.5,54.4,48.9,99,77,50,30.14,29.94,13,3,22,0.00
2013-4-17,65.6,57.5,51.9,58.1,54.8,51.7,100,92,75,30.21,29.99,14,2,17,0.00
2013-4-18,83.0,69.2,57.8,61.1,55.9,49.8,96,67,32,30.01,29.60,18,4,31,0.00
2013-4-19,73.7,52.1,38.9,60.1,40.8,27.1,96,67,47,29.93,29.39,20,8,33,0.00
2013-4-20,44.9,38.1,30.7,31.5,26.7,22.6,87,64,44,30.42,29.93,16,5,22,0.00
2013-4-21,53.6,40.1,25.7,29.8,24.4,19.4,91,57,28,30.58,30.42,12,1,17,0.00
2013-4-22,68.4,51.3,35.2,42.7,31.3,22.1,65,48,28,30.42,30.15,9,1,14,0.00
2013-4-23,69.8,58.6,45.1,45.0,35.6,25.4,54,43,31,30.16,29.86,10,2,19,0.00
2013-4-24,62.7,50.9,32.7,55.3,43.7,30.2,97,78,51,30.19,29.73,17,4,21,0.00
2013-4-25,54.1,42.5,31.3,37.7,32.2,24.3,97,70,47,30.37,30.19,16,3,21,0.00
2013-4-26,60.9,46.6,31.2,36.4,30.4,24.2,86,56,30,30.46,30.35,9,1,13,0.00
2013-4-27,69.6,55.6,36.9,42.4,33.8,28.2,78,47,22,30.36,30.07,10,1,15,0.00
2013-4-28,61.5,56.0,52.2,59.5,52.5,42.2,99,89,60,30.07,29.82,8,1,16,0.00
2013-4-29,63.4,57.5,51.1,57.1,54.8,49.7,100,91,72,29.97,29.85,7,1,12,0.00
2013-4-30,74.7,61.1,46.7,57.5,51.9,46.4,100,75,46,30.06,29.96,10,1,12,0.00
2013-5-1,79.8,66.9,55.3,59.6,53.0,49.5,84,63,38,30.20,30.05,10,2,17,0.00
2013-5-2,75.1,65.3,56.6,54.9,50.6,45.5,83,60,46,30.24,30.09,11,2,16,0.00
2013-5-3,75.8,66.2,56.2,53.0,43.8,33.2,79,49,22,30.12,29.99,13,2,22,0.00
2013-5-4,69.9,60.9,52.3,47.1,41.4,35.7,67,49,37,30.06,29.96,15,4,21,0.00
2013-5-5,72.5,61.8,50.2,42.8,37.5,26.4,72,44,24,30.01,29.89,15,3,18,0.00
2013-5-6,68.6,59.9,54.5,56.2,46.3,27.4,89,63,27,29.96,29.91,11,1,15,0.00
2013-5-7,70.9,60.6,54.7,62.0,54.3,50.9,93,81,57,29.95,29.90,10,2,14,0.00
2013-5-8,72.5,61.8,54.1,55.4,52.0,48.2,91,72,44,29.95,29.87,9,1,13,0.00
2013-5-9,78.6,64.6,50.1,56.3,51.8,44.1,99,68,31,29.97,29.90,11,1,16,0.00
2013-5-10,72.7,63.1,58.1,61.5,58.9,53.2,99,87,64,29.92,29.76,15,2,28,0.33
2013-5-11,60.4,52.6,44.3,60.1,48.3,37.6,99,86,70,29.93,29.76,17,3,23,0.01
2013-5-12,51.0,44.0,36.0,37.8,31.4,27.0,94,64,41,30.11,29.93,16,3,20,0.00
2013-5-13,54.4,43.6,33.1,33.2,29.4,23.9,88,60,31,30.19,30.09,13,1,15,0.00
2013-5-14,73.3,54.8,35.5,53.2,40.2,31.5,87,61,36,30.16,29.79,14,2,24,0.00
2013-5-15,85.7,74.4,64.3,58.4,56.1,52.7,75,55,33,29.80,29.71,18,5,24,0.00
2013-5-16,76.0,68.7,60.5,62.9,58.5,49.9,97,72,41,29.94,29.74,14,1,17,0.02
2013-5-17,80.7,67.8,60.2,64.1,60.2,52.4,100,80,41,30.06,29.93,9,1,11,0.00
2013-5-18,79.6,67.2,58.4,64.2,58.0,51.4,91,73,52,30.07,29.95,10,1,11,0.00
2013-5-19,79.4,69.8,60.7,65.4,62.3,58.1,96,78,58,29.99,29.88,10,1,12,0.00
2013-5-20,83.4,72.0,63.7,71.6,66.2,62.5,100,84,54,29.97,29.84,11,1,14,0.30
2013-5-21,84.3,74.3,66.4,68.4,64.6,58.3,99,75,42,29.88,29.75,12,2,19,0.00
2013-5-22,79.4,70.9,62.4,63.2,60.5,58.1,96,71,52,29.81,29.69,16,3,24,0.00
2013-5-23,72.8,62.4,46.8,63.0,57.1,42.8,99,85,50,30.00,29.73,19,4,22,0.00
2013-5-24,55.3,47.3,40.9,43.3,37.1,33.5,89,69,44,30.32,30.00,19,4,20,0.00
2013-5-25,62.6,49.4,33.8,43.0,37.4,32.7,99,67,38,30.38,30.23,12,1,16,0.00
2013-5-26,69.3,54.5,37.0,42.7,34.5,25.9,93,52,24,30.32,30.19,10,0,12,0.00
2013-5-27,66.0,56.2,47.6,51.1,43.7,34.1,89,64,49,30.24,30.00,13,2,20,0.00
2013-5-28,82.4,72.2,58.7,63.3,58.3,50.9,85,63,43,30.01,29.90,17,3,23,0.00
2013-5-29,85.3,76.3,68.3,60.4,57.9,51.8,70,54,32,30.03,29.93,19,4,24,0.00
2013-5-30,86.3,75.3,62.6,65.3,61.2,56.0,96,64,38,30.12,29.98,11,1,18,0.00
2013-5-31,85.7,72.8,61.6,66.6,62.1,58.4,99,72,44,30.03,29.91,14,3,35,0.11
2013-6-1,81.8,73.2,64.5,68.7,65.2,62.9,99,78,54,29.93,29.72,18,4,24,0.35
2013-6-2,74.9,69.5,64.0,68.4,60.7,55.6,98,76,53,29.86,29.72,12,2,20,0.42
2013-6-3,66.6,60.6,52.0,58.1,52.7,43.6,87,76,56,30.06,29.85,8,1,11,0.00
2013-6-4,74.4,60.4,42.3,50.2,43.4,34.6,87,56,36,30.15,30.05,7,1,12,0.00
2013-6-5,81.1,67.5,53.1,59.2,51.2,43.4,74,58,39,30.10,29.84,12,1,13,0.00
2013-6-6,69.6,65.3,58.6,67.3,63.3,57.4,100,94,72,29.85,29.72,6,0,10,0.21
2013-6-7,68.9,59.2,54.7,57.2,55.0,51.8,100,87,62,29.87,29.77,7,1,14,0.00
2013-6-8,75.4,63.1,52.0,58.3,53.8,50.8,99,74,44,30.04,29.86,5,0,9,0.00
2013-6-9,81.2,71.5,62.9,66.0,59.9,55.1,85,68,44,30.07,29.90,7,1,16,0.00
2013-6-10,76.5,67.8,64.2,66.9,64.2,61.1,100,89,61,29.90,29.71,12,2,18,0.42
2013-6-11,81.8,70.9,61.8,64.9,62.3,59.7,99,77,48,29.90,29.78,10,2,16,0.00
2013-6-12,85.5,76.3,63.5,72.6,67.7,61.8,96,76,62,29.87,29.64,7,1,14,0.00
2013-6-13,79.8,69.1,62.4,71.9,60.7,53.5,99,77,50,29.85,29.47,17,3,20,0.26
2013-6-14,74.4,65.9,58.1,58.7,55.2,52.7,87,70,50,30.03,29.85,11,2,16,0.00
2013-6-15,77.4,66.2,51.3,59.8,55.0,50.6,100,71,42,30.10,29.94,6,0,11,0.00
2013-6-16,75.8,70.4,66.8,66.0,63.1,59.0,92,78,65,29.94,29.87,15,2,18,0.00
2013-6-17,83.4,72.4,65.6,68.7,65.6,62.3,100,81,54,29.93,29.84,11,1,12,0.00
2013-6-18,79.6,69.9,61.3,67.6,63.2,53.4,96,81,55,29.95,29.80,8,1,14,0.00
2013-6-19,78.1,65.8,54.5,55.2,49.8,41.2,85,60,28,30.12,29.94,10,1,11,0.00
2013-6-20,84.0,68.7,53.3,56.3,51.8,47.0,90,59,31,30.19,30.11,6,0,9,0.00
2013-6-21,84.9,71.4,56.0,62.5,57.2,52.5,93,65,33,30.21,30.09,7,0,14,0.00
2013-6-22,86.5,75.2,62.0,68.5,64.1,60.5,96,70,49,30.12,30.01,7,1,14,0.00
2013-6-23,87.2,76.0,63.7,69.5,64.3,58.5,99,70,43,30.09,29.98,10,1,15,0.00
2013-6-24,84.5,74.0,62.3,70.0,64.5,60.2,98,74,50,30.09,29.96,12,1,18,0.00
2013-6-25,87.4,77.0,67.4,72.4,68.3,63.9,95,76,56,30.01,29.82,17,3,17,0.00
2013-6-26,83.0,72.9,65.5,71.4,67.7,64.5,100,85,62,29.87,29.74,10,2,17,1.49
2013-6-27,83.0,72.1,66.1,71.5,67.9,63.7,100,88,60,29.76,29.62,9,1,15,0.01
2013-6-28,79.2,71.3,61.6,68.6,64.2,57.6,96,80,58,29.62,29.49,13,1,21,0.12
2013-6-29,77.7,65.7,59.6,65.1,61.0,58.4,98,86,56,29.64,29.51,7,1,15,0.01
2013-6-30,80.1,67.6,61.5,67.4,63.7,60.6,100,89,59,29.80,29.63,7,1,11,0.10
2013-7-1,81.2,69.8,63.4,67.2,63.7,61.5,98,83,52,29.89,29.77,7,1,13,0.07
2013-7-2,80.3,71.6,65.2,68.7,65.8,63.8,98,83,62,29.99,29.86,6,1,14,0.00
2013-7-3,81.1,73.2,67.3,70.7,68.0,64.8,99,85,60,30.09,29.97,9,1,13,0.06
2013-7-4,74.0,70.4,69.1,70.2,68.5,65.7,100,94,78,30.14,30.07,7,1,13,0.22
2013-7-5,77.2,70.1,66.0,69.5,67.7,65.9,100,93,71,30.12,30.04,7,0,10,0.91
2013-7-6,82.6,72.9,68.3,72.6,68.8,63.7,100,88,64,30.11,29.97,15,1,19,0.33
2013-7-7,79.8,70.7,64.8,66.6,64.0,59.1,97,81,59,30.07,29.97,13,1,18,0.03
2013-7-8,79.0,69.5,63.2,73.0,66.2,59.8,100,90,73,30.09,30.01,10,1,14,1.28
2013-7-9,85.5,73.5,68.8,74.2,70.7,68.4,100,92,67,30.03,29.93,28,1,39,1.28
2013-7-10,87.4,73.7,64.8,75.8,70.3,63.7,100,91,65,29.95,29.76,19,2,33,0.44
2013-7-11,78.1,69.1,59.9,66.3,61.9,54.0,100,80,52,29.98,29.88,12,1,13,0.01
2013-7-12,79.0,67.6,57.5,62.2,58.2,55.0,96,74,51,30.05,29.98,11,1,21,0.00
2013-7-13,84.0,72.7,61.6,67.7,63.8,59.3,96,75,55,30.13,30.03,11,1,16,0.00
2013-7-14,86.7,77.9,67.9,72.6,68.7,65.3,93,74,58,30.20,30.11,10,1,15,0.00
2013-7-15,90.3,80.2,72.5,72.1,69.0,65.5,91,70,47,30.27,30.18,5,0,7,0.00
2013-7-16,95.1,81.6,69.9,74.8,70.9,67.8,99,73,43,30.28,30.19,4,0,7,0.00
2013-7-17,90.7,81.8,71.1,73.9,71.1,67.9,97,73,48,30.25,30.11,7,1,12,0.00
2013-7-18,89.5,80.4,73.5,75.7,71.8,69.1,96,76,53,30.15,29.96,12,0,16,0.04
2013-7-19,89.0,77.3,72.0,74.9,71.9,68.0,98,85,55,29.98,29.83,12,1,26,0.38
2013-7-20,78.1,72.7,69.4,71.9,69.7,66.8,98,90,73,29.89,29.79,7,1,14,0.50
2013-7-21,84.1,74.5,67.6,71.6,69.1,65.8,100,84,55,29.93,29.85,4,0,6,0.00
2013-7-22,73.9,70.6,65.2,70.5,67.9,64.9,100,91,83,29.88,29.72,6,0,12,2.06
2013-7-23,84.5,73.5,67.9,72.8,69.2,66.0,100,88,58,29.77,29.62,10,1,21,0.27
2013-7-24,74.2,67.3,57.6,66.6,58.3,52.4,96,75,50,29.97,29.73,10,1,14,0.00
2013-7-25,77.9,64.3,52.3,57.3,52.8,50.3,94,69,41,30.06,29.97,7,0,11,0.00
2013-7-26,78.6,67.3,53.9,61.9,56.5,53.0,99,71,45,30.06,29.93,6,0,11,0.00
2013-7-27,71.8,65.7,63.2,66.1,62.6,60.3,97,90,73,29.93,29.78,11,1,15,0.22
2013-7-28,64.0,58.1,53.2,62.0,54.3,49.9,97,88,66,29.93,29.83,7,0,12,0.00
2013-8-2,74.0,72.2,70.4,63.2,62.0,61.1,78,71,66,29.92,29.89,5,1,11,0.00
2013-8-3,78.8,68.9,60.2,70.3,63.0,58.4,100,83,51,29.98,29.91,10,0,11,0.42
2013-8-4,74.6,65.4,55.9,59.8,56.0,52.7,98,74,48,30.09,29.97,10,1,15,0.00
2013-8-5,74.0,63.0,51.1,60.3,55.1,50.8,100,78,49,30.11,29.95,5,0,9,0.00
2013-8-6,80.5,69.9,60.5,62.3,58.6,55.7,88,69,47,29.98,29.90,10,1,11,0.00
2013-8-7,84.5,73.5,64.0,73.2,67.3,60.8,93,82,59,29.91,29.82,8,1,15,0.00
2013-8-8,80.9,73.0,68.3,73.4,71.2,68.2,100,95,74,29.92,29.85,5,0,11,0.61
2013-8-9,77.9,70.4,64.0,71.9,66.3,60.5,100,89,57,30.00,29.84,6,0,12,0.40
2013-8-10,81.8,71.7,62.3,66.3,63.4,60.8,96,77,53,30.07,30.00,5,0,7,0.01
2013-8-11,83.2,70.8,62.1,72.9,65.7,62.0,100,85,59,30.06,29.98,7,0,12,0.41
2013-8-12,83.0,72.0,60.2,67.8,63.8,60.1,100,78,52,30.03,29.83,6,0,10,0.01
2013-8-13,74.7,67.4,54.4,69.5,60.7,49.3,100,81,56,29.99,29.76,15,2,17,0.01
2013-8-14,60.5,53.0,49.9,50.3,48.0,46.6,93,84,70,30.14,29.99,6,1,11,0.00
2013-8-15,74.4,60.2,48.9,56.1,51.1,47.7,100,76,43,30.17,30.06,6,0,10,0.00
2013-8-16,77.0,64.9,54.8,57.1,53.0,49.5,90,68,43,30.13,30.08,7,0,11,0.00
2013-8-17,79.9,67.3,57.0,62.4,56.5,53.1,89,70,44,30.18,30.11,7,1,12,0.00
2013-8-18,73.0,64.6,57.3,65.3,60.8,55.9,99,88,70,30.17,30.08,5,0,9,0.00
2013-8-19,83.4,69.5,59.8,66.5,61.6,54.2,100,80,40,30.11,30.03,5,0,7,0.00
2013-8-20,82.8,70.4,59.2,67.7,61.4,57.8,100,77,44,30.16,30.07,6,0,11,0.00
2013-8-21,82.0,70.2,60.9,69.2,64.4,60.7,100,84,57,30.14,30.01,6,0,9,0.01
2013-8-22,83.4,72.3,63.9,69.9,66.1,61.6,100,82,60,30.07,29.95,7,1,16,0.00
2013-8-23,84.0,72.8,65.5,68.6,64.2,53.5,100,77,45,30.11,29.96,9,0,14,0.71
2013-8-24,84.1,69.8,57.5,64.2,56.7,53.1,86,65,39,30.25,30.11,7,1,11,0.00
2013-8-25,81.8,69.4,57.5,64.6,58.5,55.3,97,71,42,30.32,30.19,8,0,12,0.00
2013-8-26,85.7,72.8,59.6,67.3,62.2,56.0,92,71,47,30.23,29.99,9,1,14,0.00
2013-8-27,82.8,74.7,69.1,73.2,69.5,66.8,94,84,67,30.01,29.88,9,1,14,0.00
2013-8-28,83.8,76.9,70.6,73.4,71.4,68.9,98,84,67,29.91,29.80,13,1,16,0.04
2013-8-29,83.8,73.6,67.1,71.3,68.3,66.2,100,85,58,30.00,29.90,6,0,10,0.01
2013-8-30,85.9,74.4,64.0,71.4,66.9,63.9,100,80,53,29.96,29.79,10,1,11,0.01
2013-8-31,84.7,74.6,68.3,72.3,69.4,65.4,99,85,65,29.81,29.72,13,2,17,0.42
2013-9-1,82.2,74.0,66.4,71.9,68.6,66.3,100,85,60,29.79,29.70,9,1,12,0.01
2013-9-2,81.1,72.8,66.3,72.2,67.8,59.2,100,85,66,29.83,29.72,12,1,16,0.38
2013-9-3,66.3,60.0,52.0,59.6,53.4,50.9,98,80,63,30.04,29.83,9,2,15,0.00
2013-9-4,79.8,64.1,50.4,60.2,55.1,50.2,100,76,41,30.12,30.03,7,1,13,0.01
2013-9-5,77.9,66.0,55.9,63.6,56.0,46.4,97,73,34,30.18,30.05,12,1,14,0.00
2013-9-6,77.2,60.6,47.0,52.4,47.4,37.4,99,67,26,30.24,30.09,6,0,11,0.00
2013-9-7,81.6,65.5,49.2,63.0,54.9,47.3,97,71,46,30.09,29.91,7,0,11,0.00
2013-9-8,82.6,72.4,64.7,68.9,64.7,60.8,93,78,58,29.99,29.88,9,0,11,0.00
2013-9-9,86.1,72.8,60.9,69.1,64.4,58.5,94,77,53,30.02,29.93,14,1,15,0.00
2013-9-10,90.7,80.1,71.1,73.3,70.3,66.4,87,73,50,30.06,29.97,12,2,15,0.00
2013-9-11,85.9,76.5,71.3,72.8,70.4,66.1,96,82,62,30.09,29.94,9,1,20,0.26
2013-9-12,75.1,70.0,60.9,71.3,67.1,57.9,100,91,66,29.95,29.79,12,2,18,0.39
2013-9-13,61.6,56.5,49.5,57.1,49.7,45.6,96,79,59,30.06,29.85,13,3,17,0.00
2013-9-14,68.9,54.2,42.8,47.8,43.2,40.3,94,70,39,30.16,30.05,7,1,11,0.01
2013-9-15,70.6,58.1,43.5,59.0,49.4,42.9,100,76,45,30.15,30.01,5,1,12,0.03
2013-9-16,71.6,60.3,52.3,60.0,53.6,48.5,100,81,47,30.28,30.04,5,0,11,0.13
2013-9-17,72.1,58.0,46.7,54.8,49.7,46.1,100,77,44,30.33,30.18,9,1,12,0.01
2013-9-18,73.5,62.0,53.6,62.2,56.3,50.8,97,83,65,30.17,30.04,9,1,10,0.00
2013-9-19,69.8,65.2,62.4,66.9,64.4,62.0,100,98,87,30.07,29.96,6,0,10,0.00
2013-9-20,83.2,72.0,65.0,70.6,66.7,64.9,100,85,55,29.98,29.74,10,2,13,0.02
2013-9-21,70.3,64.5,54.8,67.0,59.3,48.0,100,85,54,29.82,29.63,11,1,22,0.93
2013-9-22,65.0,55.0,46.2,48.7,45.8,41.8,97,73,47,30.02,29.82,10,1,14,0.00
2013-9-23,62.3,51.4,42.2,49.7,44.3,41.7,100,79,53,30.14,30.02,7,1,14,0.00
2013-9-24,68.8,52.8,40.3,49.8,45.2,40.2,100,79,41,30.12,29.94,10,1,12,0.01
2013-9-25,72.8,56.9,45.8,54.5,49.7,45.2,100,80,44,29.95,29.85,5,0,10,0.01
2013-9-26,79.8,63.3,51.7,56.2,49.5,40.8,93,66,26,30.06,29.89,5,0,10,0.00
2013-9-27,77.9,61.7,49.1,57.3,50.8,46.6,94,71,41,30.15,30.05,6,0,11,0.00
2013-9-28,77.9,62.3,49.8,57.9,51.9,48.9,99,73,38,30.18,30.05,8,0,10,0.00
2013-9-29,73.3,61.7,54.1,60.6,56.4,52.6,99,84,58,30.06,29.96,10,0,12,0.01
2013-9-30,72.0,62.3,58.7,62.7,58.8,57.2,99,89,62,30.01,29.92,4,0,11,0.04
2013-10-1,77.4,64.6,55.3,62.7,58.0,55.2,100,82,49,30.06,29.97,12,1,16,0.00
2013-10-2,80.1,67.4,58.3,66.0,61.8,56.2,99,84,55,30.08,30.00,6,0,10,0.00
2013-10-3,77.4,68.9,63.4,68.5,65.3,62.8,100,89,63,30.05,29.97,9,1,13,0.08
2013-10-4,81.2,68.3,61.8,67.9,64.7,61.7,100,90,54,30.05,29.98,6,0,11,0.68
2013-10-5,79.2,70.4,64.7,70.2,66.7,63.3,100,89,66,30.03,29.90,9,1,15,0.09
2013-10-6,77.7,67.8,51.1,68.3,64.0,50.1,100,89,62,29.90,29.66,15,3,23,1.62
2013-10-7,59.8,51.6,44.3,51.8,45.0,40.8,100,80,50,30.15,29.73,11,2,17,0.45
2013-10-8,67.6,54.2,42.8,48.4,44.8,40.9,96,74,43,30.27,30.15,10,1,13,0.01
2013-10-9,70.9,55.8,44.5,49.0,44.3,41.5,93,68,35,30.27,30.16,7,1,12,0.00
2013-10-10,77.0,57.2,42.6,51.5,44.3,40.5,96,67,31,30.19,30.05,7,0,7,0.00
2013-10-11,77.9,61.0,46.7,54.8,48.2,43.3,89,66,32,30.09,30.00,7,0,11,0.00
2013-10-12,71.3,61.3,52.8,59.1,55.7,52.2,99,83,63,30.10,30.00,5,0,7,0.00
2013-10-13,69.9,62.0,57.3,60.9,57.5,48.6,96,86,70,30.25,30.09,9,1,13,0.00
2013-10-14,72.1,59.1,51.4,52.9,49.2,44.8,92,71,47,30.30,30.17,9,1,13,0.00
2013-10-15,68.1,57.8,48.6,61.0,54.8,46.2,100,90,76,30.19,29.92,7,1,10,0.04
2013-10-16,63.9,61.6,52.2,62.3,59.2,46.8,99,92,80,29.93,29.82,12,1,16,0.11
2013-10-17,53.1,47.9,39.9,48.4,44.5,38.8,99,88,75,29.93,29.81,9,1,16,0.16
2013-10-18,62.1,49.7,40.9,46.2,42.0,39.3,100,78,45,30.02,29.92,13,2,17,0.01
2013-10-19,48.8,44.3,39.1,47.1,41.6,37.2,99,91,81,29.97,29.78,10,1,17,0.13
2013-10-20,58.7,46.5,36.3,40.6,37.9,34.7,98,75,47,30.03,29.97,14,2,20,0.01
2013-10-21,64.3,52.7,39.8,48.0,38.1,34.2,85,60,35,30.01,29.85,12,2,20,0.00
2013-10-22,52.6,42.3,31.8,48.2,31.7,24.0,94,69,36,30.01,29.86,9,1,17,0.16
2013-10-23,44.5,37.9,33.1,38.5,34.3,30.3,99,88,58,30.01,29.77,13,2,16,0.55
2013-10-24,44.5,36.3,30.3,33.4,29.5,23.3,95,78,45,30.21,29.99,11,1,18,0.00
2013-10-25,47.4,36.3,27.9,32.1,28.0,25.1,94,74,44,30.40,30.22,9,1,17,0.01
2013-10-26,45.5,39.4,31.6,33.8,27.4,24.3,77,63,45,30.27,29.92,16,4,26,0.00
2013-10-27,53.6,41.4,31.0,36.2,32.3,29.0,96,73,42,30.10,30.02,11,1,12,0.00
2013-10-28,61.5,44.3,30.9,41.5,33.4,29.3,99,70,32,30.29,30.09,5,0,7,0.00
2013-10-29,58.9,47.8,36.8,42.9,38.1,35.7,97,72,44,30.37,30.21,6,0,6,0.00
2013-10-30,62.4,54.5,47.7,56.9,47.3,36.5,99,77,61,30.21,30.02,6,0,10,0.00
2013-10-31,63.7,60.4,57.2,59.8,57.3,55.0,100,90,74,30.01,29.31,16,4,23,0.47
2013-11-1,62.4,54.4,49.5,61.8,47.0,41.9,98,77,56,29.69,29.27,16,4,30,0.41
2013-11-2,50.7,47.1,41.9,43.4,39.8,35.9,95,77,60,30.04,29.68,13,2,21,0.04
2013-11-3,54.8,43.0,36.8,40.9,35.5,29.7,97,77,40,30.42,30.04,9,1,12,0.01
2013-11-4,52.6,42.4,31.6,35.7,30.9,26.3,82,65,43,30.48,30.34,11,1,15,0.00
2013-11-5,60.1,51.2,46.2,41.1,37.0,34.9,66,59,47,30.43,30.25,7,0,11,0.00
2013-11-6,67.1,55.7,43.6,58.6,45.5,31.6,99,71,45,30.24,29.90,16,4,20,0.48
2013-11-7,49.8,41.1,32.8,48.6,32.5,24.7,99,73,47,30.19,29.93,14,3,19,0.14
2013-11-8,44.3,36.1,29.3,32.9,29.2,25.7,94,77,51,30.35,30.15,9,1,18,0.01
2013-11-9,57.8,45.3,30.6,34.4,29.4,25.6,89,57,35,30.27,29.97,22,4,28,0.00
2013-11-10,47.1,40.5,28.7,37.0,29.8,25.3,89,67,51,30.34,30.01,15,3,22,0.00
2013-11-11,47.6,39.0,27.2,39.0,30.9,25.2,95,74,52,30.32,30.05,13,2,17,0.05
2013-11-12,32.4,27.0,23.0,31.1,21.9,18.2,96,81,71,30.59,30.20,14,3,21,0.01
2013-11-13,36.0,28.0,17.8,21.0,17.5,13.5,91,67,40,30.62,30.39,14,2,18,0.01
2013-11-14,50.1,38.3,29.0,23.3,18.3,14.2,65,46,26,30.39,30.17,15,4,21,0.00
2013-11-15,51.1,45.0,38.9,38.7,24.3,16.1,77,45,32,30.19,30.10,14,2,17,0.00
2013-11-16,57.2,50.8,43.9,50.8,45.6,38.5,90,83,74,30.17,29.92,11,2,15,0.00
2013-11-17,60.5,57.2,51.0,58.4,52.9,37.7,97,86,54,29.92,29.45,25,7,32,0.68
2013-11-18,51.0,43.7,33.7,39.0,32.9,24.5,83,67,47,30.13,29.68,26,7,26,0.00
2013-11-19,43.2,34.1,27.5,26.4,23.9,22.7,84,67,47,30.40,30.13,11,1,16,0.00
2013-11-20,46.5,36.2,27.0,29.1,24.2,21.0,79,63,46,30.41,30.27,9,2,15,0.00
2013-11-21,54.1,45.5,36.6,42.8,34.5,24.5,85,66,52,30.37,30.20,5,0,10,0.17
2013-11-22,51.3,46.1,34.7,51.2,44.2,27.9,100,93,75,30.33,30.11,12,3,19,0.32
2013-11-23,35.6,28.2,18.8,28.4,20.3,5.5,92,73,51,30.50,30.27,21,4,23,0.01
2013-11-24,24.1,17.6,13.8,10.8,7.0,2.7,84,64,44,30.66,30.50,11,3,17,0.00
2013-11-25,34.7,25.3,15.1,27.1,13.3,8.1,88,62,37,30.56,30.21,14,2,22,0.00
2013-11-26,32.8,30.5,28.5,31.1,29.2,26.9,97,95,88,30.22,29.87,4,0,7,0.05
2013-11-27,29.4,25.6,22.9,26.9,17.8,9.6,94,73,50,30.25,29.85,14,4,21,0.00
2013-11-28,23.2,22.6,22.1,18.8,18.3,17.7,84,83,82,30.29,30.25,4,1,10,0.00
2013-11-29,36.5,28.1,24.8,20.2,18.6,17.6,75,68,50,30.65,30.58,3,0,5,0.15
2013-11-30,40.1,28.2,24.7,26.4,20.7,18.5,79,73,57,30.58,30.33,10,2,13,0.01
2013-12-4,56.3,55.6,55.1,50.8,50.3,49.7,83,82,82,29.77,29.77,2,1,11,0.00
2013-12-5,63.1,50.2,32.1,59.5,45.7,29.7,100,85,68,30.11,29.74,13,3,17,0.47
2013-12-6,32.1,28.7,24.7,30.0,26.7,22.4,94,92,89,30.37,30.08,6,1,14,0.04
2013-12-7,26.1,21.2,14.6,22.7,14.4,9.4,92,75,57,30.64,30.36,11,1,13,0.12
2013-12-8,30.0,20.4,14.8,29.5,15.2,9.7,98,80,76,30.59,30.03,10,2,15,0.00
2013-12-9,33.2,29.6,24.2,32.9,25.5,17.1,99,85,70,30.21,29.98,17,4,18,0.00
2013-12-10,24.2,20.8,17.3,18.0,13.2,7.4,90,73,55,30.35,30.13,17,4,20,0.00
2013-12-11,30.0,20.6,12.6,18.4,12.9,7.6,82,72,58,30.49,30.28,15,4,18,0.01
2013-12-12,17.5,13.6,5.2,7.8,2.4,-4.0,82,62,39,30.55,30.35,14,3,18,0.00
2013-12-13,32.2,24.1,15.4,23.0,13.2,4.7,71,63,54,30.35,30.21,10,3,15,0.00
2013-12-14,36.8,32.4,29.0,36.7,31.7,24.2,100,97,77,30.24,29.70,10,2,15,0.05
2013-12-15,32.8,24.1,21.4,32.7,19.3,9.8,100,83,60,30.11,29.75,16,6,23,0.03
2013-12-16,26.3,22.0,18.6,25.3,17.5,12.5,96,83,67,30.19,30.02,13,1,16,0.00
2013-12-17,31.9,27.0,24.8,31.1,23.5,20.3,97,87,78,30.14,29.97,12,3,19,0.00
2013-12-18,29.0,25.2,21.6,22.8,18.2,14.2,91,75,58,30.25,30.09,12,4,16,0.00
2013-12-19,48.3,40.9,29.1,35.8,26.5,15.1,73,56,47,30.10,29.97,11,3,16,0.26
2013-12-20,55.3,50.6,46.5,53.1,42.8,29.5,99,76,50,29.97,29.82,11,3,19,0.07
2013-12-21,65.2,58.2,55.0,61.8,56.9,53.1,100,96,79,29.82,29.45,17,5,31,1.23
2013-12-22,65.3,54.6,41.8,60.4,49.8,39.0,98,84,65,29.99,29.44,18,6,30,0.60
2013-12-23,41.5,32.0,26.3,38.9,25.2,17.4,96,76,65,30.36,29.97,13,3,17,0.05
2013-12-24,26.3,16.0,8.3,20.7,9.3,2.9,88,75,64,30.61,30.33,12,3,19,0.00
2013-12-25,30.0,21.5,8.1,23.7,12.7,4.2,86,70,43,30.58,30.19,10,2,16,0.00
2013-12-26,35.9,30.8,24.5,24.8,20.1,15.1,81,65,44,30.36,30.16,20,5,22,0.00
2013-12-27,42.9,35.5,28.8,28.6,24.7,19.2,74,65,56,30.41,30.27,13,3,17,0.00
2013-12-28,50.7,41.2,34.6,32.2,28.0,24.9,72,60,49,30.27,30.02,16,4,18,0.00
2013-12-29,41.5,38.1,32.2,39.9,33.5,24.2,99,85,50,30.02,29.74,16,2,18,0.39
2013-12-30,32.1,25.6,23.6,28.3,18.7,16.2,86,75,68,30.24,29.95,14,2,20,0.01
2013-12-31,25.1,22.6,18.9,17.8,14.7,11.4,84,72,60,30.36,30.13,16,4,22,0.00
2014-1-1,38.3,28.6,18.0,27.9,22.3,14.3,89,77,62,30.34,30.06,5,0,10,0.00
2014-1-2,27.0,21.2,9.9,23.3,17.2,3.8,93,85,75,30.18,29.78,16,3,23,0.00